Data for 02/19/2005

Time Sea-Level Adjusted Pressure Absolute Pressure Temperature Relative Humidity Dew Point   
(mb) (inHg) (mb) (inHg) (C) (F) (%) (C) (F)
00:05 1008 29.77 837 24.72 -2.4 27.7 56 -10 13.9
00:10 1008 29.77 837 24.72 -2.7 27.2 57 -10 13.9
00:15 1008 29.77 837 24.72 -2.7 27.2 57 -10.1 13.7
00:20 1008 29.77 837 24.72 -2.5 27.4 57 -9.9 14.1
00:25 1008 29.77 837 24.72 -2.3 27.9 55 -10 13.9
00:30 1008 29.77 837 24.72 -2.4 27.6 56 -10 14
00:35 1008 29.77 837 24.72 -2.3 27.8 56 -10 14.1
00:40 1008 29.77 837 24.72 -2.2 28 55 -10 14.1
00:45 1008 29.77 837 24.72 -2.2 28.1 54 -10.2 13.7
00:50 1008 29.77 837 24.72 -2 28.3 54 -10.1 13.8
00:55 1008 29.77 837 24.72 -1.9 28.6 53 -10.2 13.7
01:00 1008 29.77 837 24.72 -1.8 28.7 52 -10.3 13.4
01:05 1008 29.77 837 24.72 -1.8 28.7 51 -10.6 13
01:10 1008 29.77 837 24.72 -1.7 28.9 51 -10.5 13
01:15 1008 29.77 837 24.72 -1.6 29.1 51 -10.4 13.3
01:20 1008 29.77 837 24.72 -1.8 28.7 53 -10.2 13.7
01:25 1008 29.77 837 24.72 -2.5 27.6 56 -10.2 13.7
01:30 1008 29.77 837 24.72 -2.6 27.3 56 -10.3 13.4
01:35 1008 29.77 837 24.72 -2.6 27.4 54 -10.6 13
01:40 1008 29.77 837 24.72 -2.1 28.2 54 -10.2 13.6
01:45 1008 29.77 837 24.72 -2.8 26.9 57 -10.2 13.7
01:50 1008 29.77 837 24.72 -2.5 27.6 56 -10.2 13.7
01:55 1008 29.77 837 24.72 -2 28.5 54 -10 14
02:00 1008 29.77 837 24.72 -2.2 28 56 -9.9 14.2
02:05 1008 29.77 837 24.72 -2.4 27.6 56 -10 14
02:10 1008 29.77 837 24.72 -2.5 27.6 56 -10.1 13.9
02:15 1008 29.77 837 24.72 -2.6 27.3 57 -10 14
02:20 1008 29.77 837 24.72 -2.8 26.9 58 -10.1 13.9
02:25 1008 29.77 837 24.72 -2.9 26.8 56 -10.4 13.2
02:30 1008 29.77 837 24.72 -3.2 26.3 58 -10.4 13.3
02:35 1008 29.77 837 24.72 -3.4 25.9 59 -10.3 13.5
02:40 1007 29.74 837 24.72 -3.1 26.4 58 -10.2 13.7
02:45 1007 29.74 837 24.72 -3.1 26.4 58 -10.2 13.7
02:50 1007 29.74 837 24.72 -3.2 26.2 57 -10.5 13.1
02:55 1007 29.74 837 24.72 -2.9 26.7 56 -10.5 13.1
03:00 1007 29.74 837 24.72 -2.9 26.8 56 -10.5 13.1
03:05 1007 29.74 837 24.72 -2.9 26.7 55 -10.7 12.8
03:10 1007 29.74 836 24.69 -3 26.7 55 -10.8 12.5
03:15 1007 29.74 836 24.69 -2.7 27.2 53 -10.9 12.4
03:20 1007 29.74 836 24.69 -2.3 27.8 53 -10.6 12.9
03:25 1007 29.74 836 24.69 -2.6 27.3 55 -10.6 13
03:30 1007 29.74 836 24.69 -3 26.7 56 -10.5 13.2
03:35 1007 29.74 836 24.69 -3.1 26.4 58 -10.4 13.3
03:40 1007 29.74 836 24.69 -3.3 26 58 -10.4 13.3
03:45 1007 29.74 836 24.69 -3.3 26.1 59 -10.3 13.5
03:50 1007 29.74 836 24.69 -3 26.6 58 -10.1 13.8
03:55 1007 29.74 836 24.69 -2.8 26.9 58 -10 14
04:00 1007 29.74 836 24.69 -2.9 26.8 58 -10 14
04:05 1007 29.74 836 24.69 -3 26.6 58 -10.1 13.8
04:10 1007 29.74 836 24.69 -3.3 26 59 -10.2 13.6
04:15 1007 29.74 836 24.69 -3.4 26 59 -10.2 13.6
04:20 1007 29.74 836 24.69 -3.1 26.4 59 -10.1 13.8
04:25 1007 29.74 836 24.69 -3 26.6 59 -10 14
04:30 1007 29.74 836 24.69 -2.6 27.3 58 -9.9 14.2
04:35 1006 29.71 836 24.69 -2.4 27.7 57 -9.8 14.4
04:40 1006 29.71 836 24.69 -2.4 27.8 57 -9.8 14.4
04:45 1006 29.71 836 24.69 -2.3 27.8 57 -9.7 14.5
04:50 1006 29.71 836 24.69 -2.5 27.6 58 -9.7 14.5
04:55 1006 29.71 836 24.69 -2.6 27.3 58 -9.8 14.4
05:00 1006 29.71 835 24.66 -2.5 27.4 58 -9.7 14.5
05:05 1006 29.71 835 24.66 -2.6 27.3 58 -9.7 14.5
05:10 1006 29.71 835 24.66 -2.7 27.1 59 -9.7 14.5
05:15 1006 29.71 835 24.66 -2.7 27.2 58 -9.8 14.3
05:20 1006 29.71 835 24.66 -2.7 27.1 58 -9.8 14.3
05:25 1006 29.71 835 24.66 -3 26.6 59 -9.9 14.1
05:30 1006 29.71 835 24.66 -2.8 26.9 58 -9.9 14.2
05:35 1006 29.71 835 24.66 -2.7 27.1 58 -9.9 14.1
05:40 1006 29.71 835 24.66 -2.8 26.9 59 -9.8 14.3
05:45 1006 29.71 835 24.66 -3 26.7 59 -9.9 14.2
05:50 1006 29.71 835 24.66 -3.2 26.2 61 -9.8 14.4
05:55 1006 29.71 835 24.66 -3.2 26.2 61 -9.8 14.3
06:00 1006 29.71 835 24.66 -2.5 27.5 57 -10 14.1
06:05 1006 29.71 835 24.66 -2.5 27.4 59 -9.4 15.1
06:10 1006 29.71 835 24.66 -3.1 26.4 62 -9.4 15.2
06:15 1006 29.71 835 24.66 -3.4 25.9 61 -9.8 14.4
06:20 1005 29.68 835 24.66 -3.1 26.5 61 -9.7 14.6
06:25 1005 29.68 835 24.66 -2.9 26.9 61 -9.3 15.2
06:30 1005 29.68 835 24.66 -3 26.6 60 -9.8 14.3
06:35 1005 29.68 834 24.63 -1.8 28.8 55 -9.7 14.5
06:40 1005 29.68 834 24.63 -1.9 28.6 57 -9.3 15.2
06:45 1005 29.68 834 24.63 -2.3 27.8 57 -9.8 14.4
06:50 1005 29.68 834 24.63 -2.5 27.6 58 -9.5 14.8
06:55 1005 29.68 834 24.63 -2.7 27.1 58 -9.8 14.4
07:00 1005 29.68 834 24.63 -2.6 27.3 60 -9.4 15.1
07:05 1005 29.68 834 24.63 -2.7 27.1 62 -9 15.7
07:10 1005 29.68 834 24.63 -2.7 27.2 62 -9.1 15.6
07:15 1005 29.68 834 24.63 -2.4 27.7 61 -9 15.8
07:20 1005 29.68 834 24.63 -1.9 28.6 58 -9 15.8
07:25 1005 29.68 834 24.63 -1.8 28.7 59 -8.9 16.1
07:30 1005 29.68 834 24.63 -1.9 28.6 59 -8.8 16.2
07:35 1005 29.68 835 24.66 -2.2 28 61 -8.6 16.5
07:40 1005 29.68 835 24.66 -3.2 26.3 65 -8.8 16.1
07:45 1005 29.68 835 24.66 -3.8 25.2 66 -9.2 15.5
07:50 1005 29.68 835 24.66 -3.7 25.3 65 -9.4 15
07:55 1005 29.68 835 24.66 -3.5 25.8 62 -9.7 14.5
08:00 1005 29.68 835 24.66 -3.3 26.1 61 -9.8 14.3
08:05 1005 29.68 835 24.66 -3.1 26.3 61 -9.7 14.5
08:10 1005 29.68 835 24.66 -2.9 26.8 60 -9.7 14.6
08:15 1005 29.68 835 24.66 -2.5 27.4 58 -9.8 14.4
08:20 1005 29.68 835 24.66 -2.8 27 60 -9.5 14.9
08:25 1005 29.68 835 24.66 -2.9 26.8 60 -9.7 14.5
08:30 1006 29.71 835 24.66 -2.7 27.1 58 -9.8 14.3
08:35 1006 29.71 835 24.66 -2.6 27.2 59 -9.6 14.8
08:40 1006 29.71 835 24.66 -2.6 27.4 60 -9.3 15.2
08:45 1006 29.71 835 24.66 -2.5 27.4 59 -9.5 15
08:50 1006 29.71 835 24.66 -2.7 27.2 60 -9.4 15.1
08:55 1006 29.71 835 24.66 -2.7 27.2 60 -9.4 15.2
09:00 1006 29.71 835 24.66 -2.8 27 62 -9.1 15.7
09:05 1006 29.71 835 24.66 -2.8 27 63 -9 15.9
09:10 1006 29.71 835 24.66 -2.5 27.5 61 -9.1 15.7
09:15 1006 29.71 835 24.66 -2.3 27.8 62 -8.7 16.3
09:20 1006 29.71 835 24.66 -2.1 28.3 60 -8.8 16.2
09:25 1006 29.71 835 24.66 -1.8 28.8 58 -9 15.8
09:30 1006 29.71 835 24.66 -1.6 29.1 57 -9.1 15.7
09:35 1006 29.71 835 24.66 -1.8 28.8 57 -9.1 15.6
09:40 1006 29.71 835 24.66 -1.6 29.1 57 -9 15.9
09:45 1006 29.71 835 24.66 -1.4 29.5 57 -8.9 16
09:50 1006 29.71 835 24.66 -1.4 29.4 57 -8.8 16.1
09:55 1006 29.71 835 24.66 -1.6 29.2 60 -8.3 17
10:00 1006 29.71 835 24.66 -1.3 29.6 58 -8.4 16.8
10:05 1006 29.71 835 24.66 -1.5 29.4 60 -8.2 17.2
10:10 1006 29.71 835 24.66 -1.4 29.5 59 -8.3 17
10:15 1006 29.71 835 24.66 -1.2 29.8 60 -8 17.5
10:20 1006 29.71 835 24.66 -0.7 30.7 57 -8.1 17.3
10:25 1006 29.71 835 24.66 -0.4 31.3 57 -7.8 17.9
10:30 1006 29.71 835 24.66 -0.1 31.7 56 -7.8 17.9
10:35 1006 29.71 835 24.66 0.2 32.3 56 -7.6 18.4
10:40 1006 29.71 835 24.66 0 32.1 57 -7.5 18.5
10:45 1006 29.71 835 24.66 0.4 32.7 54 -7.9 17.8
10:50 1006 29.71 835 24.66 0.5 33 53 -8 17.6
10:55 1006 29.71 835 24.66 1.1 34 52 -7.6 18.3
11:00 1006 29.71 835 24.66 1 33.9 52 -7.7 18.1
11:05 1006 29.71 835 24.66 1.1 34 52 -7.7 18.1
11:10 1006 29.71 835 24.66 1 33.8 52 -7.8 17.9
11:15 1006 29.71 835 24.66 1.1 34 53 -7.5 18.5
11:20 1006 29.71 835 24.66 1.7 35.1 49 -7.9 17.8
11:25 1006 29.71 835 24.66 2.2 35.9 48 -7.7 18.2
11:30 1006 29.71 835 24.66 2.2 35.9 48 -7.8 18
11:35 1006 29.71 835 24.66 2.3 36.1 48 -7.8 18
11:40 1006 29.71 835 24.66 2.8 37.1 43 -8.5 16.6
11:45 1006 29.71 835 24.66 3.5 38.3 45 -7.5 18.6
11:50 1006 29.71 835 24.66 3.8 38.9 42 -7.9 17.7
11:55 1006 29.71 835 24.66 4 39.3 44 -7.2 19
12:00 1005 29.68 835 24.66 4.4 40 42 -7.5 18.5
12:05 1005 29.68 835 24.66 4.4 39.9 41 -7.6 18.3
12:10 1005 29.68 835 24.66 4.5 40.2 38 -8.4 16.8
12:15 1005 29.68 835 24.66 5.2 41.3 38 -8 17.5
12:20 1005 29.68 835 24.66 5.1 41.1 41 -7.1 19.2
12:25 1005 29.68 835 24.66 5 41 39 -7.9 17.9
12:30 1005 29.68 835 24.66 4.8 40.6 40 -7.9 17.9
12:35 1005 29.68 835 24.66 4 39.2 44 -7.2 19.1
12:40 1005 29.68 834 24.63 4.1 39.4 43 -7.3 18.8
12:45 1005 29.68 834 24.63 3.7 38.7 46 -6.9 19.5
12:50 1005 29.68 834 24.63 3.8 38.8 46 -6.8 19.8
12:55 1005 29.68 834 24.63 3.6 38.6 46 -6.8 19.8
13:00 1005 29.68 834 24.63 3.4 38.1 46 -7.1 19.3
13:05 1005 29.68 834 24.63 3.5 38.3 44 -7.6 18.3
13:10 1005 29.68 834 24.63 3.7 38.7 45 -7 19.3
13:15 1005 29.68 834 24.63 3.2 37.7 46 -7.2 19
13:20 1005 29.68 834 24.63 2.9 37.3 47 -7.3 18.9
13:25 1005 29.68 834 24.63 3.1 37.7 49 -6.5 20.3
13:30 1005 29.68 834 24.63 3.5 38.3 48 -6.6 20.1
13:35 1005 29.68 834 24.63 3.8 38.8 47 -6.6 20.1
13:40 1005 29.68 834 24.63 3.9 39.1 46 -6.6 20.1
13:45 1005 29.68 834 24.63 4 39.3 46 -6.5 20.2
13:50 1005 29.68 834 24.63 4 39.2 48 -6.2 20.9
13:55 1005 29.68 834 24.63 3.7 38.6 49 -6.1 21.1
14:00 1005 29.68 834 24.63 3.9 39.1 47 -6.2 20.8
14:05 1005 29.68 834 24.63 4.9 40.9 44 -6.3 20.7
14:10 1005 29.68 834 24.63 6.1 42.9 40 -6.6 20
14:15 1005 29.68 834 24.63 6.1 43 40 -6.7 20
14:20 1005 29.68 834 24.63 5.4 41.7 39 -7.6 18.4
14:25 1005 29.68 834 24.63 4.5 40.1 41 -7.5 18.4
14:30 1005 29.68 834 24.63 4.8 40.6 41 -7.4 18.8
14:35 1005 29.68 834 24.63 5.2 41.4 41 -6.9 19.7
14:40 1005 29.68 834 24.63 5 41 42 -6.9 19.5
14:45 1005 29.68 834 24.63 5.8 42.5 37 -7.8 18
14:50 1005 29.68 834 24.63 6.5 43.7 38 -6.9 19.6
14:55 1005 29.68 834 24.63 5.8 42.5 39 -7.1 19.2
15:00 1005 29.68 834 24.63 6.6 43.9 37 -7 19.3
15:05 1005 29.68 834 24.63 7 44.6 37 -6.6 20.1
15:10 1005 29.68 834 24.63 7 44.6 35 -7.5 18.4
15:15 1005 29.68 834 24.63 7.2 45 34 -7.5 18.6
15:20 1005 29.68 834 24.63 7.1 44.9 35 -7.2 19.1
15:25 1005 29.68 834 24.63 7.7 45.9 34 -7.1 19.2
15:30 1005 29.68 834 24.63 7.4 45.3 37 -6.3 20.6
15:35 1005 29.68 834 24.63 7 44.7 37 -6.6 20.2
15:40 1005 29.68 834 24.63 6.9 44.4 37 -6.7 19.9
15:45 1005 29.68 834 24.63 7.4 45.3 36 -6.6 20.2
15:50 1005 29.68 834 24.63 7.7 45.8 35 -6.9 19.6
15:55 1005 29.68 834 24.63 7.3 45.2 38 -6 21.2
16:00 1005 29.68 834 24.63 6.9 44.4 39 -6.1 21
16:05 1005 29.68 834 24.63 6.6 43.8 40 -6.1 21
16:10 1005 29.68 834 24.63 6.3 43.3 39 -6.7 20
16:15 1005 29.68 834 24.63 6.4 43.6 42 -5.7 21.8
16:20 1005 29.68 834 24.63 6.6 43.8 41 -5.8 21.6
16:25 1005 29.68 834 24.63 6.1 43 42 -5.9 21.4
16:30 1005 29.68 834 24.63 6 42.8 43 -5.8 21.6
16:35 1005 29.68 834 24.63 5.8 42.4 45 -5.3 22.4
16:40 1005 29.68 834 24.63 6.1 43.1 42 -5.8 21.5
16:45 1005 29.68 834 24.63 5.8 42.4 44 -5.5 22
16:50 1005 29.68 834 24.63 5.8 42.4 44 -5.7 21.8
16:55 1005 29.68 834 24.63 5.6 42 47 -5 23
17:00 1005 29.68 834 24.63 5 41.1 44 -6.1 21
17:05 1005 29.68 834 24.63 4.9 40.8 45 -6 21.2
17:10 1005 29.68 834 24.63 4.7 40.5 47 -5.6 21.8
17:15 1005 29.68 834 24.63 4.5 40.1 48 -5.5 22.1
17:20 1005 29.68 834 24.63 4.3 39.7 51 -5 23
17:25 1005 29.68 834 24.63 4.2 39.5 50 -5.4 22.3
17:30 1005 29.68 834 24.63 4.1 39.4 50 -5.4 22.3
17:35 1005 29.68 834 24.63 4 39.3 50 -5.5 22.1
17:40 1005 29.68 834 24.63 4.1 39.3 50 -5.4 22.3
17:45 1005 29.68 834 24.63 4.1 39.4 48 -6 21.3
17:50 1005 29.68 835 24.66 4.2 39.6 50 -5.3 22.4
17:55 1005 29.68 835 24.66 4 39.2 52 -5 23
18:00 1005 29.68 834 24.63 3.9 39 51 -5.5 22.1
18:05 1005 29.68 834 24.63 3.9 39 50 -5.7 21.7
18:10 1005 29.68 835 24.66 3.8 38.9 51 -5.4 22.4
18:15 1005 29.68 835 24.66 3.7 38.6 53 -5.1 22.9
18:20 1005 29.68 835 24.66 3.4 38.2 54 -5.1 22.8
18:25 1006 29.71 835 24.66 3.4 38.1 53 -5.4 22.3
18:30 1006 29.71 835 24.66 3.4 38.1 54 -5 22.9
18:35 1006 29.71 835 24.66 3 37.5 56 -4.9 23.3
18:40 1006 29.71 835 24.66 2.9 37.2 55 -5.4 22.3
18:45 1006 29.71 835 24.66 2.8 37 56 -5.1 22.9
18:50 1006 29.71 835 24.66 2.5 36.6 58 -4.9 23.2
18:55 1006 29.71 835 24.66 2.5 36.6 56 -5.5 22.2
19:00 1006 29.71 835 24.66 2.8 37.1 54 -5.5 22.1
19:05 1006 29.71 835 24.66 2.7 36.8 57 -5.1 22.8
19:10 1006 29.71 835 24.66 2.4 36.3 57 -5.2 22.6
19:15 1006 29.71 835 24.66 2.1 35.8 61 -4.7 23.6
19:20 1006 29.71 835 24.66 1.9 35.5 61 -4.8 23.3
19:25 1006 29.71 835 24.66 2 35.6 61 -4.8 23.4
19:30 1006 29.71 835 24.66 2.1 35.8 60 -5 23.1
19:35 1006 29.71 835 24.66 2.1 35.9 60 -4.8 23.4
19:40 1006 29.71 835 24.66 2.3 36.2 59 -5 23.1
19:45 1006 29.71 835 24.66 2.5 36.5 58 -5 23
19:50 1006 29.71 835 24.66 2.8 37 57 -4.9 23.2
19:55 1006 29.71 835 24.66 2.9 37.2 57 -4.8 23.4
20:00 1006 29.71 835 24.66 2.9 37.2 57 -4.8 23.4
20:05 1006 29.71 835 24.66 3 37.3 56 -4.9 23.2
20:10 1006 29.71 835 24.66 2.9 37.3 57 -4.7 23.5
20:15 1006 29.71 835 24.66 2.9 37.2 57 -4.8 23.3
20:20 1006 29.71 835 24.66 2.9 37.1 57 -4.8 23.3
20:25 1006 29.71 835 24.66 2.9 37.2 58 -4.6 23.7
20:30 1006 29.71 835 24.66 2.8 37.1 59 -4.3 24.3
20:35 1006 29.71 835 24.66 2.8 37 61 -4 24.8
20:40 1006 29.71 835 24.66 2.7 36.9 63 -3.6 25.5
20:45 1006 29.71 835 24.66 2.6 36.7 63 -3.7 25.3
20:50 1006 29.71 835 24.66 2.7 36.9 60 -4.2 24.5
20:55 1006 29.71 835 24.66 3 37.4 60 -4.1 24.5
21:00 1006 29.71 835 24.66 2.8 37 62 -3.8 25.2
21:05 1006 29.71 835 24.66 2.6 36.8 64 -3.5 25.7
21:10 1006 29.71 836 24.69 2.7 36.8 64 -3.5 25.7
21:15 1006 29.71 836 24.69 2.8 37 63 -3.6 25.4
21:20 1006 29.71 836 24.69 2.9 37.2 62 -3.6 25.5
21:25 1007 29.74 836 24.69 3 37.5 60 -3.9 25
21:30 1007 29.74 836 24.69 3 37.5 60 -3.9 24.9
21:35 1007 29.74 836 24.69 3.1 37.6 61 -3.7 25.4
21:40 1007 29.74 836 24.69 2.9 37.3 62 -3.6 25.6
21:45 1007 29.74 836 24.69 3 37.4 61 -3.8 25.2
21:50 1007 29.74 836 24.69 3.1 37.6 62 -3.6 25.6
21:55 1007 29.74 836 24.69 3 37.5 62 -3.4 25.8
22:00 1007 29.74 836 24.69 2.8 37.1 65 -3.1 26.4
22:05 1007 29.74 836 24.69 2.5 36.4 66 -3.3 26
22:10 1007 29.74 836 24.69 2.1 35.8 65 -3.7 25.3
22:15 1007 29.74 836 24.69 2.3 36.1 65 -3.7 25.3
22:20 1007 29.74 836 24.69 2.3 36.1 64 -3.8 25.2
22:25 1007 29.74 836 24.69 2.2 35.9 69 -2.9 26.8
22:30 1007 29.74 836 24.69 2 35.6 69 -3.1 26.4
22:35 1007 29.74 836 24.69 2.1 35.9 68 -3.2 26.3
22:40 1007 29.74 836 24.69 2.3 36.1 68 -3 26.5
22:45 1007 29.74 837 24.72 2.4 36.4 66 -3.2 26.2
22:50 1007 29.74 837 24.72 2.5 36.5 65 -3.4 25.9
22:55 1007 29.74 837 24.72 2.4 36.3 68 -3 26.7
23:00 1007 29.74 837 24.72 1.9 35.4 68 -3.3 26
23:05 1008 29.77 837 24.72 1.6 34.9 68 -3.6 25.5
23:10 1007 29.74 837 24.72 1.5 34.6 65 -4.5 23.9
23:15 1007 29.74 837 24.72 1.3 34.3 64 -4.7 23.5
23:20 1008 29.77 837 24.72 1.1 34 63 -5.1 22.8
23:25 1007 29.74 837 24.72 1.1 33.9 62 -5.4 22.2
23:30 1008 29.77 837 24.72 1.1 34 61 -5.6 21.9
23:35 1007 29.74 837 24.72 1.1 33.9 60 -5.9 21.4
23:40 1007 29.74 837 24.72 1.1 33.9 60 -5.9 21.3
23:45 1008 29.77 837 24.72 0.9 33.7 60 -5.9 21.3
23:50 1008 29.77 837 24.72 0.9 33.5 61 -5.8 21.5
23:55 1008 29.77 837 24.72 0.6 33.1 63 -5.7 21.8
24:00 1008 29.77 837 24.72 0.5 32.9 63 -5.8 21.6